Simpsonville, South Carolina
Current Conditions -  °F | °C
As of 8:15 PM on Sunday 21 Dec 2014 (Local Time) from KGYH Reporting Station
Overcast Overcast  
Wind Chill: 40°   Ceiling: 3100
Heat Index: 45°   Visibility: 10mi
Dew Point: 36°   Wind: 8mph
Humidity: 71%   Direction: 60°ENE
Pressure: 30.16"   Gusts: NA
Location:  34.74°N, 82.25°W
Report Text: KGYH 220115Z AUTO 06007KT 10SM OVC031 07/02 A3016 RMK AO2
Loading
Personal Weather Stations






























Interactive Weather Map New forecast layout! Learn more

10-Day Weather Forecast

Advertisements
Track Severe Weather on mobile